createdAt,value
2018-06-22T00:00:38.603Z,0
2018-06-22T00:01:39.271Z,0
2018-06-22T00:02:39.938Z,0
2018-06-22T00:03:40.606Z,0
2018-06-22T00:04:41.272Z,0
2018-06-22T00:05:41.942Z,0
2018-06-22T00:06:42.605Z,0
2018-06-22T00:07:43.271Z,0
2018-06-22T00:08:43.975Z,0
2018-06-22T00:09:44.641Z,0
2018-06-22T00:10:45.308Z,0
2018-06-22T00:11:45.974Z,0
2018-06-22T00:12:46.641Z,0
2018-06-22T00:13:47.307Z,0
2018-06-22T00:14:47.973Z,0
2018-06-22T00:15:48.638Z,0
2018-06-22T00:16:49.303Z,0
2018-06-22T00:17:49.970Z,0
2018-06-22T00:18:50.635Z,0
2018-06-22T00:19:51.302Z,0
2018-06-22T00:20:51.969Z,0
2018-06-22T00:21:52.638Z,0
2018-06-22T00:22:53.303Z,0
2018-06-22T00:23:53.971Z,0
2018-06-22T00:24:54.638Z,0
2018-06-22T00:25:55.304Z,0
2018-06-22T00:26:55.973Z,0
2018-06-22T00:27:56.636Z,0
2018-06-22T00:28:57.305Z,0
2018-06-22T00:29:58.005Z,0
2018-06-22T00:30:58.709Z,0
2018-06-22T00:31:59.378Z,0
2018-06-22T00:33:00.078Z,0
2018-06-22T00:34:00.744Z,0
2018-06-22T00:35:01.411Z,0
2018-06-22T00:36:02.113Z,0
2018-06-22T00:37:02.779Z,0
2018-06-22T00:38:03.444Z,0
2018-06-22T00:39:04.110Z,0
2018-06-22T00:40:04.777Z,0
2018-06-22T00:41:05.444Z,0
2018-06-22T00:42:06.110Z,0
2018-06-22T00:43:06.777Z,0
2018-06-22T00:44:07.443Z,0
2018-06-22T00:45:08.109Z,0
2018-06-22T00:46:08.774Z,0
2018-06-22T00:47:09.439Z,0
2018-06-22T00:48:10.105Z,0
2018-06-22T00:49:10.769Z,0
2018-06-22T00:50:11.435Z,0
2018-06-22T00:51:12.104Z,0
2018-06-22T00:52:12.769Z,0
2018-06-22T00:53:13.437Z,0
2018-06-22T00:54:14.103Z,0
2018-06-22T00:55:14.768Z,0
2018-06-22T00:56:15.434Z,0
2018-06-22T00:57:16.101Z,0
2018-06-22T00:58:16.767Z,0
2018-06-22T00:59:17.434Z,0
2018-06-22T01:00:18.100Z,0
2018-06-22T01:01:18.767Z,0
2018-06-22T01:02:19.433Z,0
2018-06-22T01:03:20.101Z,0
2018-06-22T01:04:20.772Z,0
2018-06-22T01:05:21.436Z,0
2018-06-22T01:06:22.104Z,0
2018-06-22T01:07:22.773Z,0
2018-06-22T01:08:23.439Z,0
2018-06-22T01:09:24.107Z,0
2018-06-22T01:10:24.776Z,0
2018-06-22T01:11:25.445Z,0
2018-06-22T01:12:26.148Z,0
2018-06-22T01:13:26.865Z,0
2018-06-22T01:14:27.532Z,0
2018-06-22T01:15:28.203Z,0
2018-06-22T01:16:28.869Z,0
2018-06-22T01:17:29.536Z,0
2018-06-22T01:18:30.201Z,0
2018-06-22T01:19:30.867Z,0
2018-06-22T01:20:31.538Z,0
2018-06-22T01:21:32.205Z,0
2018-06-22T01:22:32.870Z,0
2018-06-22T01:23:33.537Z,0
2018-06-22T01:24:34.203Z,0
2018-06-22T01:25:34.871Z,0
2018-06-22T01:26:35.539Z,0
2018-06-22T01:27:36.207Z,0
2018-06-22T01:28:36.875Z,0
2018-06-22T01:29:37.541Z,0
2018-06-22T01:30:38.207Z,0
2018-06-22T01:31:38.874Z,0
2018-06-22T01:32:39.541Z,0
2018-06-22T01:33:40.208Z,0
2018-06-22T01:34:40.874Z,0
2018-06-22T01:35:41.542Z,0
2018-06-22T01:36:42.208Z,0
2018-06-22T01:37:42.875Z,0
2018-06-22T01:38:43.543Z,0
2018-06-22T01:39:44.212Z,0
2018-06-22T01:40:44.878Z,0
2018-06-22T01:41:45.545Z,0
2018-06-22T01:42:46.212Z,0
2018-06-22T01:43:46.929Z,0
2018-06-22T01:44:47.596Z,0
2018-06-22T01:45:48.262Z,0
2018-06-22T01:46:48.929Z,0
2018-06-22T01:47:49.597Z,0
2018-06-22T01:48:50.265Z,0
2018-06-22T01:49:50.932Z,0
2018-06-22T01:50:51.598Z,0
2018-06-22T01:51:52.264Z,0
2018-06-22T01:52:52.935Z,0
2018-06-22T01:53:53.600Z,0
2018-06-22T01:54:54.266Z,0
2018-06-22T01:55:54.933Z,0
2018-06-22T01:56:55.638Z,0
2018-06-22T01:57:56.305Z,0
2018-06-22T01:58:56.970Z,0
2018-06-22T01:59:57.640Z,0
2018-06-22T02:00:58.309Z,0
2018-06-22T02:01:58.976Z,0
2018-06-22T02:02:59.641Z,0
2018-06-22T02:04:00.307Z,0
2018-06-22T02:05:00.973Z,0
2018-06-22T02:06:01.641Z,0
2018-06-22T02:07:02.307Z,0
2018-06-22T02:08:02.973Z,0
2018-06-22T02:09:03.639Z,0
2018-06-22T02:10:04.304Z,0
2018-06-22T02:11:04.971Z,0
2018-06-22T02:12:05.638Z,0
2018-06-22T02:13:06.305Z,0
2018-06-22T02:14:06.973Z,0
2018-06-22T02:15:07.639Z,0
2018-06-22T02:16:08.304Z,0
2018-06-22T02:17:08.970Z,0
2018-06-22T02:18:09.637Z,0
2018-06-22T02:19:10.306Z,0
2018-06-22T02:20:10.972Z,0
2018-06-22T02:21:11.638Z,0
2018-06-22T02:22:12.304Z,0
2018-06-22T02:23:12.970Z,0
2018-06-22T02:24:13.638Z,0
2018-06-22T02:25:14.306Z,0
2018-06-22T02:26:14.974Z,0
2018-06-22T02:27:15.640Z,0
2018-06-22T02:28:16.306Z,0
2018-06-22T02:29:16.972Z,0
2018-06-22T02:30:17.641Z,0
2018-06-22T02:31:18.308Z,0
2018-06-22T02:32:18.973Z,0
2018-06-22T02:33:19.639Z,0
2018-06-22T02:34:20.306Z,0
2018-06-22T02:35:20.972Z,0
2018-06-22T02:36:21.641Z,0
2018-06-22T02:37:22.308Z,0
2018-06-22T02:38:22.979Z,0
2018-06-22T02:39:23.682Z,0
2018-06-22T02:40:24.349Z,0
2018-06-22T02:41:25.016Z,0
2018-06-22T02:42:25.686Z,0
2018-06-22T02:43:26.382Z,0
2018-06-22T02:44:27.092Z,0
2018-06-22T02:45:27.758Z,0
2018-06-22T02:46:28.427Z,0
2018-06-22T02:47:29.094Z,0
2018-06-22T02:48:29.761Z,0
2018-06-22T02:49:30.428Z,0
2018-06-22T02:50:31.125Z,0
2018-06-22T02:51:31.772Z,0
2018-06-22T02:52:32.438Z,0
2018-06-22T02:53:33.104Z,0
2018-06-22T02:54:33.772Z,0
2018-06-22T02:55:34.441Z,0
2018-06-22T02:56:35.138Z,0
2018-06-22T02:57:35.775Z,0
2018-06-22T02:58:36.443Z,0
2018-06-22T02:59:37.112Z,0
2018-06-22T03:00:37.783Z,0
2018-06-22T03:01:38.449Z,0
2018-06-22T03:02:39.116Z,0
2018-06-22T03:03:39.785Z,0
2018-06-22T03:04:40.455Z,0
2018-06-22T03:05:41.159Z,0
2018-06-22T03:06:41.827Z,0
2018-06-22T03:07:42.493Z,0
2018-06-22T03:08:43.161Z,0
2018-06-22T03:09:43.827Z,0
2018-06-22T03:10:44.498Z,0
2018-06-22T03:11:45.167Z,0
2018-06-22T03:12:45.895Z,0
2018-06-22T03:13:46.501Z,0
2018-06-22T03:14:47.170Z,0
2018-06-22T03:15:47.838Z,0
2018-06-22T03:16:48.505Z,0
2018-06-22T03:17:49.206Z,0
2018-06-22T03:18:49.877Z,0
2018-06-22T03:19:50.577Z,0
2018-06-22T03:20:51.243Z,0
2018-06-22T03:21:51.911Z,5
2018-06-22T03:22:52.579Z,0
2018-06-22T03:23:53.247Z,0
2018-06-22T03:24:53.916Z,0
2018-06-22T03:25:54.583Z,0
2018-06-22T03:26:55.249Z,0
2018-06-22T03:27:55.916Z,0
2018-06-22T03:28:56.585Z,0
2018-06-22T03:29:57.251Z,0
2018-06-22T03:30:57.917Z,0
2018-06-22T03:31:58.594Z,0
2018-06-22T03:32:59.251Z,0
2018-06-22T03:33:59.918Z,0
2018-06-22T03:35:00.586Z,0
2018-06-22T03:36:01.255Z,0
2018-06-22T03:37:01.924Z,0
2018-06-22T03:38:02.593Z,5
2018-06-22T03:39:03.261Z,5
2018-06-22T03:40:03.931Z,11
2018-06-22T03:41:04.598Z,5
2018-06-22T03:42:05.267Z,11
2018-06-22T03:43:05.936Z,11
2018-06-22T03:44:06.607Z,16
2018-06-22T03:45:07.277Z,16
2018-06-22T03:46:07.985Z,16
2018-06-22T03:47:08.653Z,16
2018-06-22T03:48:09.323Z,16
2018-06-22T03:49:09.993Z,22
2018-06-22T03:50:10.661Z,28
2018-06-22T03:51:11.330Z,33
2018-06-22T03:52:12.002Z,45
2018-06-22T03:53:12.673Z,45
2018-06-22T03:54:13.347Z,39
2018-06-22T03:55:14.050Z,45
2018-06-22T03:56:14.722Z,45
2018-06-22T03:57:15.391Z,45
2018-06-22T03:58:16.061Z,45
2018-06-22T03:59:16.737Z,50
2018-06-22T04:00:17.405Z,50
2018-06-22T04:01:18.075Z,50
2018-06-22T04:02:18.746Z,50
2018-06-22T04:03:19.417Z,50
2018-06-22T04:04:20.088Z,50
2018-06-22T04:05:20.763Z,50
2018-06-22T04:06:21.431Z,56
2018-06-22T04:07:22.101Z,61
2018-06-22T04:08:22.773Z,61
2018-06-22T04:09:23.442Z,56
2018-06-22T04:10:24.112Z,56
2018-06-22T04:11:24.785Z,56
2018-06-22T04:12:25.456Z,61
2018-06-22T04:13:26.128Z,56
2018-06-22T04:14:26.834Z,61
2018-06-22T04:15:27.555Z,56
2018-06-22T04:16:28.226Z,50
2018-06-22T04:17:28.899Z,56
2018-06-22T04:18:29.568Z,50
2018-06-22T04:19:30.240Z,50
2018-06-22T04:20:30.912Z,45
2018-06-22T04:21:31.578Z,45
2018-06-22T04:22:32.249Z,45
2018-06-22T04:23:32.920Z,50
2018-06-22T04:24:33.592Z,50
2018-06-22T04:25:34.262Z,45
2018-06-22T04:26:34.933Z,39
2018-06-22T04:27:35.604Z,45
2018-06-22T04:28:36.275Z,50
2018-06-22T04:29:36.950Z,45
2018-06-22T04:30:37.657Z,45
2018-06-22T04:31:38.328Z,45
2018-06-22T04:32:38.999Z,45
2018-06-22T04:33:39.670Z,45
2018-06-22T04:34:40.339Z,50
2018-06-22T04:35:41.009Z,67
2018-06-22T04:36:41.685Z,67
2018-06-22T04:37:42.390Z,67
2018-06-22T04:38:43.118Z,73
2018-06-22T04:39:43.732Z,78
2018-06-22T04:40:44.404Z,84
2018-06-22T04:41:45.074Z,90
2018-06-22T04:42:45.742Z,95
2018-06-22T04:43:46.414Z,106
2018-06-22T04:44:47.089Z,106
2018-06-22T04:45:47.758Z,106
2018-06-22T04:46:48.440Z,112
2018-06-22T04:47:49.103Z,106
2018-06-22T04:48:49.774Z,106
2018-06-22T04:49:50.448Z,112
2018-06-22T04:50:51.120Z,101
2018-06-22T04:51:51.791Z,84
2018-06-22T04:52:52.462Z,78
2018-06-22T04:53:53.135Z,73
2018-06-22T04:54:53.804Z,90
2018-06-22T04:55:54.476Z,95
2018-06-22T04:56:55.149Z,112
2018-06-22T04:57:55.822Z,151
2018-06-22T04:58:56.495Z,191
2018-06-22T04:59:57.166Z,225
2018-06-22T05:00:57.841Z,230
2018-06-22T05:01:58.514Z,225
2018-06-22T05:02:59.238Z,196
2018-06-22T05:03:59.934Z,163
2018-06-22T05:05:00.644Z,129
2018-06-22T05:06:01.318Z,118
2018-06-22T05:07:01.991Z,118
2018-06-22T05:08:02.700Z,106
2018-06-22T05:09:03.375Z,106
2018-06-22T05:10:04.048Z,101
2018-06-22T05:11:04.720Z,95
2018-06-22T05:12:05.393Z,101
2018-06-22T05:13:06.065Z,106
2018-06-22T05:14:06.738Z,101
2018-06-22T05:15:07.412Z,118
2018-06-22T05:16:08.084Z,129
2018-06-22T05:17:08.757Z,163
2018-06-22T05:18:09.429Z,168
2018-06-22T05:19:10.101Z,151
2018-06-22T05:20:10.775Z,118
2018-06-22T05:21:11.448Z,112
2018-06-22T05:22:12.121Z,106
2018-06-22T05:23:12.793Z,95
2018-06-22T05:24:13.464Z,67
2018-06-22T05:25:14.135Z,61
2018-06-22T05:26:14.812Z,78
2018-06-22T05:27:15.485Z,101
2018-06-22T05:28:16.155Z,123
2018-06-22T05:29:16.828Z,135
2018-06-22T05:30:17.554Z,146
2018-06-22T05:31:18.174Z,146
2018-06-22T05:32:18.847Z,140
2018-06-22T05:33:19.520Z,123
2018-06-22T05:34:20.193Z,112
2018-06-22T05:35:20.864Z,95
2018-06-22T05:36:21.536Z,95
2018-06-22T05:37:22.208Z,90
2018-06-22T05:38:22.881Z,90
2018-06-22T05:39:23.553Z,90
2018-06-22T05:40:24.225Z,84
2018-06-22T05:41:24.916Z,78
2018-06-22T05:42:25.570Z,73
2018-06-22T05:43:26.243Z,73
2018-06-22T05:44:26.915Z,84
2018-06-22T05:45:27.588Z,90
2018-06-22T05:46:28.261Z,106
2018-06-22T05:47:28.934Z,118
2018-06-22T05:48:29.606Z,129
2018-06-22T05:49:30.283Z,129
2018-06-22T05:50:30.992Z,135
2018-06-22T05:51:31.666Z,146
2018-06-22T05:52:32.339Z,140
2018-06-22T05:53:33.011Z,129
2018-06-22T05:54:33.685Z,112
2018-06-22T05:55:34.358Z,101
2018-06-22T05:56:35.050Z,101
2018-06-22T05:57:35.704Z,112
2018-06-22T05:58:36.377Z,112
2018-06-22T05:59:37.088Z,118
2018-06-22T06:00:37.768Z,123
2018-06-22T06:01:38.435Z,118
2018-06-22T06:02:39.108Z,112
2018-06-22T06:03:39.873Z,101
2018-06-22T06:04:40.453Z,95
2018-06-22T06:05:41.125Z,90
2018-06-22T06:06:41.802Z,95
2018-06-22T06:07:42.471Z,101
2018-06-22T06:08:43.143Z,95
2018-06-22T06:09:43.817Z,101
2018-06-22T06:10:44.487Z,84
2018-06-22T06:11:45.161Z,78
2018-06-22T06:12:45.877Z,67
2018-06-22T06:13:46.588Z,56
2018-06-22T06:14:47.255Z,61
2018-06-22T06:15:47.926Z,78
2018-06-22T06:16:48.598Z,78
2018-06-22T06:17:49.272Z,84
2018-06-22T06:18:49.943Z,78
2018-06-22T06:19:50.616Z,73
2018-06-22T06:20:51.288Z,73
2018-06-22T06:21:51.997Z,73
2018-06-22T06:22:52.669Z,67
2018-06-22T06:23:53.341Z,67
2018-06-22T06:24:54.012Z,78
2018-06-22T06:25:54.684Z,90
2018-06-22T06:26:55.357Z,106
2018-06-22T06:27:56.034Z,118
2018-06-22T06:28:56.705Z,118
2018-06-22T06:29:57.378Z,106
2018-06-22T06:30:58.051Z,95
2018-06-22T06:31:58.724Z,78
2018-06-22T06:32:59.396Z,73
2018-06-22T06:34:00.067Z,73
2018-06-22T06:35:00.739Z,67
2018-06-22T06:36:01.413Z,61
2018-06-22T06:37:02.081Z,61
2018-06-22T06:38:02.756Z,61
2018-06-22T06:39:03.465Z,67
2018-06-22T06:40:04.177Z,73
2018-06-22T06:41:04.848Z,67
2018-06-22T06:42:05.521Z,67
2018-06-22T06:43:06.193Z,61
2018-06-22T06:44:06.868Z,56
2018-06-22T06:45:07.540Z,50
2018-06-22T06:46:08.213Z,61
2018-06-22T06:47:08.886Z,73
2018-06-22T06:48:09.593Z,73
2018-06-22T06:49:10.264Z,67
2018-06-22T06:50:10.975Z,61
2018-06-22T06:51:11.645Z,61
2018-06-22T06:52:12.316Z,73
2018-06-22T06:53:12.992Z,73
2018-06-22T06:54:13.660Z,78
2018-06-22T06:55:14.332Z,84
2018-06-22T06:56:15.004Z,78
2018-06-22T06:57:15.673Z,78
2018-06-22T06:58:16.347Z,84
2018-06-22T06:59:17.016Z,90
2018-06-22T07:00:17.691Z,101
2018-06-22T07:01:18.364Z,106
2018-06-22T07:02:19.036Z,112
2018-06-22T07:03:19.711Z,101
2018-06-22T07:04:20.379Z,67
2018-06-22T07:05:21.055Z,67
2018-06-22T07:06:21.724Z,67
2018-06-22T07:07:22.437Z,67
2018-06-22T07:08:23.141Z,67
2018-06-22T07:09:23.777Z,67
2018-06-22T07:10:24.448Z,78
2018-06-22T07:11:25.121Z,90
2018-06-22T07:12:25.831Z,112
2018-06-22T07:13:26.504Z,129
2018-06-22T07:14:27.256Z,140
2018-06-22T07:15:27.885Z,151
2018-06-22T07:16:28.559Z,168
2018-06-22T07:17:29.268Z,180
2018-06-22T07:18:29.939Z,180
2018-06-22T07:19:30.613Z,191
2018-06-22T07:20:31.285Z,208
2018-06-22T07:21:31.959Z,202
2018-06-22T07:22:32.632Z,185
2018-06-22T07:23:33.349Z,163
2018-06-22T07:24:34.014Z,135
2018-06-22T07:25:34.689Z,123
2018-06-22T07:26:35.361Z,123
2018-06-22T07:27:36.035Z,123
2018-06-22T07:28:36.707Z,129
2018-06-22T07:29:37.379Z,140
2018-06-22T07:30:38.102Z,135
2018-06-22T07:31:38.757Z,140
2018-06-22T07:32:39.431Z,146
2018-06-22T07:33:40.103Z,140
2018-06-22T07:34:40.776Z,129
2018-06-22T07:35:41.449Z,129
2018-06-22T07:36:42.157Z,129
2018-06-22T07:37:42.830Z,118
2018-06-22T07:38:43.503Z,101
2018-06-22T07:39:44.175Z,118
2018-06-22T07:40:44.848Z,151
2018-06-22T07:41:45.520Z,129
2018-06-22T07:42:46.192Z,112
2018-06-22T07:43:46.877Z,123
2018-06-22T07:44:47.541Z,118
2018-06-22T07:45:48.216Z,123
2018-06-22T07:46:48.887Z,123
2018-06-22T07:47:49.560Z,157
2018-06-22T07:48:50.233Z,135
2018-06-22T07:49:50.955Z,118
2018-06-22T07:50:51.585Z,95
2018-06-22T07:51:52.255Z,106
2018-06-22T07:52:52.924Z,123
2018-06-22T07:53:53.596Z,135
2018-06-22T07:54:54.271Z,118
2018-06-22T07:55:54.944Z,118
2018-06-22T07:56:55.654Z,112
2018-06-22T07:57:56.394Z,118
2018-06-22T07:58:57.048Z,84
2018-06-22T07:59:57.758Z,78
2018-06-22T08:00:58.430Z,90
2018-06-22T08:01:59.101Z,84
2018-06-22T08:02:59.775Z,84
2018-06-22T08:04:00.445Z,90
2018-06-22T08:05:01.116Z,56
2018-06-22T08:06:01.815Z,50
2018-06-22T08:07:02.500Z,39
2018-06-22T08:08:03.171Z,67
2018-06-22T08:09:03.843Z,73
2018-06-22T08:10:04.516Z,84
2018-06-22T08:11:05.187Z,78
2018-06-22T08:12:05.858Z,73
2018-06-22T08:13:06.567Z,78
2018-06-22T08:14:07.240Z,67
2018-06-22T08:15:07.911Z,78
2018-06-22T08:16:08.585Z,123
2018-06-22T08:17:09.295Z,106
2018-06-22T08:18:09.966Z,118
2018-06-22T08:19:10.641Z,123
2018-06-22T08:20:11.314Z,106
2018-06-22T08:21:11.989Z,118
2018-06-22T08:22:12.659Z,112
2018-06-22T08:23:13.329Z,135
2018-06-22T08:24:14.005Z,140
2018-06-22T08:25:14.678Z,135
2018-06-22T08:26:15.349Z,140
2018-06-22T08:27:16.022Z,140
2018-06-22T08:28:16.697Z,151
2018-06-22T08:29:17.364Z,146
2018-06-22T08:30:18.039Z,140
2018-06-22T08:31:18.713Z,140
2018-06-22T08:32:19.384Z,140
2018-06-22T08:33:20.103Z,135
2018-06-22T08:34:20.777Z,140
2018-06-22T08:35:21.448Z,146
2018-06-22T08:36:22.120Z,140
2018-06-22T08:37:22.792Z,135
2018-06-22T08:38:23.464Z,129
2018-06-22T08:39:24.139Z,129
2018-06-22T08:40:24.813Z,118
2018-06-22T08:41:25.526Z,118
2018-06-22T08:42:26.156Z,112
2018-06-22T08:43:26.827Z,123
2018-06-22T08:44:27.501Z,140
2018-06-22T08:45:28.176Z,140
2018-06-22T08:46:28.845Z,123
2018-06-22T08:47:29.518Z,112
2018-06-22T08:48:30.190Z,123
2018-06-22T08:49:30.866Z,123
2018-06-22T08:50:31.536Z,135
2018-06-22T08:51:32.208Z,157
2018-06-22T08:52:32.879Z,157
2018-06-22T08:53:33.553Z,213
2018-06-22T08:54:34.225Z,208
2018-06-22T08:55:34.902Z,225
2018-06-22T08:56:35.570Z,230
2018-06-22T08:57:36.238Z,225
2018-06-22T08:58:36.911Z,219
2018-06-22T08:59:37.582Z,185
2018-06-22T09:00:38.257Z,140
2018-06-22T09:01:38.927Z,118
2018-06-22T09:02:39.599Z,101
2018-06-22T09:03:40.309Z,95
2018-06-22T09:04:40.982Z,106
2018-06-22T09:05:41.653Z,112
2018-06-22T09:06:42.328Z,123
2018-06-22T09:07:43.000Z,123
2018-06-22T09:08:43.673Z,151
2018-06-22T09:09:44.344Z,174
2018-06-22T09:10:45.018Z,174
2018-06-22T09:11:45.691Z,157
2018-06-22T09:12:46.364Z,157
2018-06-22T09:13:47.039Z,129
2018-06-22T09:14:47.709Z,135
2018-06-22T09:15:48.381Z,123
2018-06-22T09:16:49.053Z,135
2018-06-22T09:17:49.727Z,157
2018-06-22T09:18:50.399Z,168
2018-06-22T09:19:51.074Z,241
2018-06-22T09:20:51.744Z,247
2018-06-22T09:21:52.416Z,286
2018-06-22T09:22:53.090Z,292
2018-06-22T09:23:53.801Z,348
2018-06-22T09:24:54.472Z,303
2018-06-22T09:25:55.145Z,236
2018-06-22T09:26:55.818Z,196
2018-06-22T09:27:56.491Z,202
2018-06-22T09:28:57.166Z,258
2018-06-22T09:29:57.839Z,264
2018-06-22T09:30:58.512Z,247
2018-06-22T09:31:59.184Z,225
2018-06-22T09:32:59.856Z,225
2018-06-22T09:34:00.531Z,270
2018-06-22T09:35:01.244Z,247
2018-06-22T09:36:01.917Z,236
2018-06-22T09:37:02.591Z,241
2018-06-22T09:38:03.264Z,286
2018-06-22T09:39:03.938Z,326
2018-06-22T09:40:04.613Z,354
2018-06-22T09:41:05.287Z,427
2018-06-22T09:42:05.961Z,410
2018-06-22T09:43:06.645Z,360
2018-06-22T09:44:07.314Z,343
2018-06-22T09:45:08.023Z,298
2018-06-22T09:46:08.659Z,348
2018-06-22T09:47:09.336Z,405
2018-06-22T09:48:10.010Z,326
2018-06-22T09:49:10.736Z,241
2018-06-22T09:50:11.410Z,225
2018-06-22T09:51:12.084Z,208
2018-06-22T09:52:12.795Z,275
2018-06-22T09:53:13.468Z,292
2018-06-22T09:54:14.142Z,264
2018-06-22T09:55:14.876Z,264
2018-06-22T09:56:15.491Z,225
2018-06-22T09:57:16.167Z,213
2018-06-22T09:58:16.839Z,174
2018-06-22T09:59:17.515Z,146
2018-06-22T10:00:18.193Z,129
2018-06-22T10:01:18.900Z,151
2018-06-22T10:02:19.575Z,191
2018-06-22T10:03:20.251Z,225
2018-06-22T10:04:20.960Z,225
2018-06-22T10:05:21.633Z,270
2018-06-22T10:06:22.308Z,326
2018-06-22T10:07:22.983Z,376
2018-06-22T10:08:23.659Z,343
2018-06-22T10:09:24.333Z,343
2018-06-22T10:10:25.007Z,343
2018-06-22T10:11:25.730Z,376
2018-06-22T10:12:26.363Z,376
2018-06-22T10:13:27.033Z,281
2018-06-22T10:14:27.707Z,213
2018-06-22T10:15:28.381Z,196
2018-06-22T10:16:29.058Z,151
2018-06-22T10:17:29.733Z,135
2018-06-22T10:18:30.408Z,140
2018-06-22T10:19:31.105Z,146
2018-06-22T10:20:31.754Z,123
2018-06-22T10:21:32.430Z,112
2018-06-22T10:22:33.104Z,106
2018-06-22T10:23:33.779Z,84
2018-06-22T10:24:34.452Z,84
2018-06-22T10:25:35.125Z,90
2018-06-22T10:26:35.797Z,90
2018-06-22T10:27:36.506Z,95
2018-06-22T10:28:37.144Z,101
2018-06-22T10:29:37.817Z,106
2018-06-22T10:30:38.492Z,123
2018-06-22T10:31:39.165Z,112
2018-06-22T10:32:39.839Z,101
2018-06-22T10:33:40.513Z,90
2018-06-22T10:34:41.186Z,84
2018-06-22T10:35:41.861Z,67
2018-06-22T10:36:42.532Z,67
2018-06-22T10:37:43.207Z,90
2018-06-22T10:38:43.918Z,106
2018-06-22T10:39:44.629Z,168
2018-06-22T10:40:45.303Z,163
2018-06-22T10:41:45.977Z,264
2018-06-22T10:42:46.653Z,331
2018-06-22T10:43:47.323Z,309
2018-06-22T10:44:47.996Z,303
2018-06-22T10:45:48.702Z,298
2018-06-22T10:46:49.344Z,320
2018-06-22T10:47:50.018Z,309
2018-06-22T10:48:50.695Z,281
2018-06-22T10:49:51.367Z,270
2018-06-22T10:50:52.045Z,275
2018-06-22T10:51:52.756Z,281
2018-06-22T10:52:53.436Z,264
2018-06-22T10:53:54.141Z,213
2018-06-22T10:54:54.819Z,219
2018-06-22T10:55:55.490Z,270
2018-06-22T10:56:56.167Z,354
2018-06-22T10:57:56.840Z,337
2018-06-22T10:58:57.516Z,247
2018-06-22T10:59:58.263Z,230
2018-06-22T11:00:58.894Z,196
2018-06-22T11:01:59.569Z,157
2018-06-22T11:03:00.243Z,140
2018-06-22T11:04:00.919Z,118
2018-06-22T11:05:01.673Z,118
2018-06-22T11:06:02.317Z,202
2018-06-22T11:07:02.991Z,326
2018-06-22T11:08:03.667Z,331
2018-06-22T11:09:04.341Z,326
2018-06-22T11:10:05.016Z,303
2018-06-22T11:11:05.730Z,320
2018-06-22T11:12:06.403Z,264
2018-06-22T11:13:07.078Z,360
2018-06-22T11:14:07.756Z,382
2018-06-22T11:15:08.432Z,410
2018-06-22T11:16:09.107Z,388
2018-06-22T11:17:09.847Z,427
2018-06-22T11:18:10.465Z,427
2018-06-22T11:19:11.177Z,416
2018-06-22T11:20:11.849Z,410
2018-06-22T11:21:12.582Z,405
2018-06-22T11:22:13.240Z,393
2018-06-22T11:23:13.914Z,376
2018-06-22T11:24:14.593Z,343
2018-06-22T11:25:15.268Z,354
2018-06-22T11:26:15.944Z,331
2018-06-22T11:27:16.640Z,303
2018-06-22T11:28:17.295Z,275
2018-06-22T11:29:17.972Z,247
2018-06-22T11:30:18.649Z,230
2018-06-22T11:31:19.328Z,354
2018-06-22T11:32:20.103Z,303
2018-06-22T11:33:20.679Z,303
2018-06-22T11:34:21.352Z,253
2018-06-22T11:35:22.029Z,213
2018-06-22T11:36:22.746Z,196
2018-06-22T11:37:23.380Z,247
2018-06-22T11:38:24.057Z,241
2018-06-22T11:39:24.731Z,219
2018-06-22T11:40:25.409Z,230
2018-06-22T11:41:26.100Z,225
2018-06-22T11:42:26.761Z,241
2018-06-22T11:43:27.435Z,292
2018-06-22T11:44:28.111Z,320
2018-06-22T11:45:28.788Z,320
2018-06-22T11:46:29.463Z,286
2018-06-22T11:47:30.140Z,264
2018-06-22T11:48:30.815Z,303
2018-06-22T11:49:31.493Z,354
2018-06-22T11:50:32.170Z,337
2018-06-22T11:51:32.846Z,326
2018-06-22T11:52:33.521Z,281
2018-06-22T11:53:34.197Z,230
2018-06-22T11:54:34.873Z,191
2018-06-22T11:55:35.618Z,163
2018-06-22T11:56:36.233Z,213
2018-06-22T11:57:36.906Z,225
2018-06-22T11:58:37.584Z,191
2018-06-22T11:59:38.260Z,180
2018-06-22T12:00:38.977Z,168
2018-06-22T12:01:39.698Z,185
2018-06-22T12:02:40.403Z,258
2018-06-22T12:03:41.082Z,326
2018-06-22T12:04:41.783Z,281
2018-06-22T12:05:42.481Z,326
2018-06-22T12:06:43.157Z,315
2018-06-22T12:07:43.833Z,326
2018-06-22T12:08:44.509Z,365
2018-06-22T12:09:45.187Z,376
2018-06-22T12:10:45.864Z,348
2018-06-22T12:11:46.541Z,326
2018-06-22T12:12:47.216Z,326
2018-06-22T12:13:47.891Z,326
2018-06-22T12:14:48.570Z,320
2018-06-22T12:15:49.244Z,309
2018-06-22T12:16:49.921Z,315
2018-06-22T12:17:50.644Z,298
2018-06-22T12:18:51.274Z,253
2018-06-22T12:19:51.949Z,253
2018-06-22T12:20:52.677Z,309
2018-06-22T12:21:53.352Z,348
2018-06-22T12:22:54.029Z,360
2018-06-22T12:23:54.706Z,326
2018-06-22T12:24:55.385Z,354
2018-06-22T12:25:56.062Z,275
2018-06-22T12:26:56.778Z,253
2018-06-22T12:27:57.494Z,208
2018-06-22T12:28:58.167Z,157
2018-06-22T12:29:58.844Z,163
2018-06-22T12:30:59.563Z,236
2018-06-22T12:32:00.239Z,275
2018-06-22T12:33:00.930Z,185
2018-06-22T12:34:01.591Z,168
2018-06-22T12:35:02.267Z,241
2018-06-22T12:36:03.030Z,320
2018-06-22T12:37:03.709Z,303
2018-06-22T12:38:04.383Z,309
2018-06-22T12:39:05.061Z,303
2018-06-22T12:40:05.743Z,326
2018-06-22T12:41:06.421Z,343
2018-06-22T12:42:07.097Z,326
2018-06-22T12:43:07.774Z,270
2018-06-22T12:44:08.450Z,303
2018-06-22T12:45:09.129Z,309
2018-06-22T12:46:09.806Z,326
2018-06-22T12:47:10.483Z,326
2018-06-22T12:48:11.163Z,348
2018-06-22T12:49:11.836Z,326
2018-06-22T12:50:12.513Z,286
2018-06-22T12:51:13.191Z,309
2018-06-22T12:52:13.870Z,286
2018-06-22T12:53:14.545Z,281
2018-06-22T12:54:15.221Z,298
2018-06-22T12:55:15.936Z,286
2018-06-22T12:56:16.617Z,286
2018-06-22T12:57:17.290Z,281
2018-06-22T12:58:17.969Z,286
2018-06-22T12:59:18.684Z,326
2018-06-22T13:00:19.363Z,343
2018-06-22T13:01:20.041Z,348
2018-06-22T13:02:20.719Z,343
2018-06-22T13:03:21.400Z,309
2018-06-22T13:04:22.072Z,275
2018-06-22T13:05:22.747Z,219
2018-06-22T13:06:23.426Z,168
2018-06-22T13:07:24.148Z,118
2018-06-22T13:08:24.820Z,112
2018-06-22T13:09:25.509Z,95
2018-06-22T13:10:26.173Z,135
2018-06-22T13:11:26.853Z,135
2018-06-22T13:12:27.530Z,140
2018-06-22T13:13:28.206Z,135
2018-06-22T13:14:28.923Z,123
2018-06-22T13:15:29.637Z,191
2018-06-22T13:16:30.315Z,208
2018-06-22T13:17:30.989Z,168
2018-06-22T13:18:31.668Z,146
2018-06-22T13:19:32.343Z,168
2018-06-22T13:20:33.020Z,208
2018-06-22T13:21:33.700Z,213
2018-06-22T13:22:34.372Z,213
2018-06-22T13:23:35.050Z,208
2018-06-22T13:24:35.726Z,253
2018-06-22T13:25:36.403Z,315
2018-06-22T13:26:37.080Z,315
2018-06-22T13:27:37.758Z,286
2018-06-22T13:28:38.432Z,247
2018-06-22T13:29:39.110Z,219
2018-06-22T13:30:39.784Z,208
2018-06-22T13:31:40.460Z,196
2018-06-22T13:32:41.138Z,202
2018-06-22T13:33:41.813Z,213
2018-06-22T13:34:42.491Z,241
2018-06-22T13:35:43.168Z,230
2018-06-22T13:36:43.899Z,208
2018-06-22T13:37:44.612Z,185
2018-06-22T13:38:45.288Z,241
2018-06-22T13:39:45.965Z,292
2018-06-22T13:40:46.639Z,343
2018-06-22T13:41:47.317Z,343
2018-06-22T13:42:47.997Z,388
2018-06-22T13:43:48.677Z,354
2018-06-22T13:44:49.357Z,399
2018-06-22T13:45:50.032Z,388
2018-06-22T13:46:50.712Z,343
2018-06-22T13:47:51.391Z,315
2018-06-22T13:48:52.067Z,320
2018-06-22T13:49:52.745Z,365
2018-06-22T13:50:53.427Z,371
2018-06-22T13:51:54.104Z,371
2018-06-22T13:52:54.783Z,354
2018-06-22T13:53:55.463Z,348
2018-06-22T13:54:56.176Z,286
2018-06-22T13:55:56.854Z,270
2018-06-22T13:56:57.595Z,219
2018-06-22T13:57:58.215Z,196
2018-06-22T13:58:58.890Z,174
2018-06-22T13:59:59.567Z,140
2018-06-22T14:01:00.249Z,174
2018-06-22T14:02:00.930Z,185
2018-06-22T14:03:01.607Z,196
2018-06-22T14:04:02.352Z,174
2018-06-22T14:05:02.961Z,208
2018-06-22T14:06:03.690Z,258
2018-06-22T14:07:04.398Z,258
2018-06-22T14:08:05.077Z,208
2018-06-22T14:09:05.754Z,225
2018-06-22T14:10:06.433Z,236
2018-06-22T14:11:07.111Z,196
2018-06-22T14:12:07.828Z,191
2018-06-22T14:13:08.508Z,180
2018-06-22T14:14:09.184Z,157
2018-06-22T14:15:09.864Z,123
2018-06-22T14:16:10.541Z,101